createdAt,value
2022-10-12T00:02:09.613Z,11.90
2022-10-12T00:04:36.281Z,12.00
2022-10-12T00:07:02.944Z,12.00
2022-10-12T00:09:29.601Z,11.90
2022-10-12T00:11:56.274Z,11.90
2022-10-12T00:14:23.014Z,11.90
2022-10-12T00:16:49.686Z,11.70
2022-10-12T00:19:16.424Z,11.60
2022-10-12T00:21:43.171Z,11.60
2022-10-12T00:24:10.377Z,11.50
2022-10-12T00:26:37.325Z,11.30
2022-10-12T00:29:04.239Z,11.30
2022-10-12T00:31:31.473Z,11.20
2022-10-12T00:34:01.592Z,11.20
2022-10-12T00:36:32.520Z,11.40
2022-10-12T00:39:00.352Z,11.50
2022-10-12T00:41:32.960Z,11.50
2022-10-12T00:44:00.031Z,11.40
2022-10-12T00:46:42.667Z,11.30
2022-10-12T00:49:20.828Z,11.10
2022-10-12T00:52:06.335Z,11.20
2022-10-12T00:54:38.189Z,11.10
2022-10-12T00:57:06.118Z,11.10
2022-10-12T00:59:42.602Z,11.00
2022-10-12T01:02:09.477Z,11.00
2022-10-12T01:04:37.197Z,10.90
2022-10-12T01:07:03.885Z,10.90
2022-10-12T01:09:30.728Z,11.00
2022-10-12T01:11:58.480Z,10.90
2022-10-12T01:14:25.666Z,10.90
2022-10-12T01:17:08.029Z,10.80
2022-10-12T01:20:17.573Z,10.90
2022-10-12T01:23:05.837Z,10.80
2022-10-12T01:26:02.893Z,10.50
2022-10-12T01:28:55.691Z,10.40
2022-10-12T01:31:32.540Z,10.50
2022-10-12T01:34:26.279Z,10.30
2022-10-12T01:37:09.602Z,10.20
2022-10-12T01:39:46.940Z,10.30
2022-10-12T01:42:20.133Z,10.30
2022-10-12T01:44:46.801Z,10.40
2022-10-12T01:47:14.225Z,10.20
2022-10-12T01:49:40.982Z,10.20
2022-10-12T01:52:30.334Z,10.20
2022-10-12T01:55:29.692Z,10.20
2022-10-12T01:58:25.803Z,10.50
2022-10-12T02:00:59.583Z,10.50
2022-10-12T02:03:29.097Z,10.40
2022-10-12T02:06:09.469Z,10.40
2022-10-12T02:08:57.188Z,10.50
2022-10-12T02:11:25.780Z,10.50
2022-10-12T02:14:03.318Z,10.40
2022-10-12T02:16:42.293Z,10.50
2022-10-12T02:19:13.403Z,10.60
2022-10-12T02:21:41.159Z,10.70
2022-10-12T02:24:10.005Z,10.50
2022-10-12T02:26:40.826Z,10.30
2022-10-12T02:29:13.768Z,10.30
2022-10-12T02:31:49.470Z,10.30
2022-10-12T02:34:20.989Z,10.40
2022-10-12T02:37:10.543Z,10.50
2022-10-12T02:40:15.355Z,10.40
2022-10-12T02:43:09.315Z,10.40
2022-10-12T02:45:38.524Z,10.40
2022-10-12T02:48:07.261Z,10.40
2022-10-12T02:50:34.756Z,10.40
2022-10-12T02:53:01.817Z,10.30
2022-10-12T02:55:30.659Z,10.30
2022-10-12T02:57:57.348Z,10.20
2022-10-12T03:00:24.052Z,10.20
2022-10-12T03:02:50.720Z,10.20
2022-10-12T03:05:17.405Z,10.20
2022-10-12T03:07:44.070Z,10.10
2022-10-12T03:10:10.921Z,10.30
2022-10-12T03:12:37.562Z,10.30
2022-10-12T03:15:04.697Z,10.50
2022-10-12T03:17:31.482Z,10.50
2022-10-12T03:19:58.167Z,10.40
2022-10-12T03:22:24.918Z,10.30
2022-10-12T03:24:51.573Z,10.30
2022-10-12T03:27:18.213Z,10.10
2022-10-12T03:29:44.821Z,10.10
2022-10-12T03:32:11.516Z,10.10
2022-10-12T03:34:38.148Z,10.10
2022-10-12T03:37:04.817Z,10.30
2022-10-12T03:39:31.463Z,10.50
2022-10-12T03:41:58.103Z,10.40
2022-10-12T03:44:24.827Z,10.30
2022-10-12T03:46:51.473Z,10.10
2022-10-12T03:49:18.143Z,10.00
2022-10-12T03:51:44.785Z,10.10
2022-10-12T03:54:11.459Z,9.90
2022-10-12T03:56:38.160Z,10.00
2022-10-12T03:59:05.043Z,10.10
2022-10-12T04:01:31.893Z,10.10
2022-10-12T04:03:58.839Z,10.00
2022-10-12T04:06:25.548Z,10.20
2022-10-12T04:08:52.352Z,10.20
2022-10-12T04:11:20.439Z,10.10
2022-10-12T04:13:47.329Z,10.00
2022-10-12T04:16:14.230Z,10.10
2022-10-12T04:18:41.026Z,10.30
2022-10-12T04:21:13.040Z,10.10
2022-10-12T04:23:40.260Z,10.00
2022-10-12T04:26:07.343Z,9.90
2022-10-12T04:28:34.359Z,10.00
2022-10-12T04:31:01.177Z,10.00
2022-10-12T04:33:28.089Z,9.90
2022-10-12T04:35:54.753Z,10.00
2022-10-12T04:38:21.447Z,9.90
2022-10-12T04:40:48.910Z,10.20
2022-10-12T04:43:16.655Z,10.10
2022-10-12T04:45:43.615Z,9.90
2022-10-12T04:48:10.391Z,9.80
2022-10-12T04:50:37.104Z,9.90
2022-10-12T04:53:03.930Z,10.00
2022-10-12T04:55:30.715Z,10.10
2022-10-12T04:57:57.412Z,10.10
2022-10-12T05:00:24.072Z,9.80
2022-10-12T05:02:50.723Z,9.80
2022-10-12T05:05:17.425Z,9.90
2022-10-12T05:07:44.175Z,9.90
2022-10-12T05:10:11.010Z,10.00
2022-10-12T05:12:37.904Z,10.10
2022-10-12T05:15:05.330Z,10.10
2022-10-12T05:17:31.986Z,10.40
2022-10-12T05:19:58.626Z,10.60
2022-10-12T05:22:25.360Z,10.60
2022-10-12T05:24:53.950Z,10.60
2022-10-12T05:27:21.038Z,10.40
2022-10-12T05:29:47.752Z,10.50
2022-10-12T05:32:15.413Z,10.40
2022-10-12T05:34:42.311Z,10.40
2022-10-12T05:37:09.270Z,10.50
2022-10-12T05:39:37.203Z,10.60
2022-10-12T05:42:04.198Z,10.70
2022-10-12T05:44:30.899Z,10.60
2022-10-12T05:46:57.683Z,10.50
2022-10-12T05:49:24.752Z,10.40
2022-10-12T05:51:51.485Z,10.60
2022-10-12T05:54:18.158Z,10.50
2022-10-12T05:56:44.927Z,10.40
2022-10-12T05:59:11.929Z,10.40
2022-10-12T06:01:39.281Z,10.60
2022-10-12T06:04:06.007Z,10.50
2022-10-12T06:06:32.667Z,10.40
2022-10-12T06:08:59.330Z,10.60
2022-10-12T06:11:26.082Z,10.60
2022-10-12T06:13:54.249Z,10.60
2022-10-12T06:16:21.050Z,10.50
2022-10-12T06:18:47.773Z,10.50
2022-10-12T06:21:33.184Z,10.50
2022-10-12T06:24:00.882Z,10.50
2022-10-12T06:26:27.565Z,10.50
2022-10-12T06:28:54.270Z,10.60
2022-10-12T06:31:21.769Z,10.70
2022-10-12T06:33:50.817Z,10.80
2022-10-12T06:36:17.511Z,10.70
2022-10-12T06:38:44.193Z,10.80
2022-10-12T06:41:10.952Z,11.10
2022-10-12T06:43:37.617Z,11.00
2022-10-12T06:46:04.713Z,11.10
2022-10-12T06:48:31.467Z,11.10
2022-10-12T06:50:58.341Z,11.00
2022-10-12T06:53:28.569Z,11.10
2022-10-12T06:55:55.224Z,11.10
2022-10-12T06:58:21.898Z,11.20
2022-10-12T07:00:48.568Z,11.40
2022-10-12T07:03:16.461Z,11.30
2022-10-12T07:05:43.215Z,11.20
2022-10-12T07:08:09.899Z,11.30
2022-10-12T07:10:36.571Z,11.10
2022-10-12T07:13:03.279Z,10.90
2022-10-12T07:15:30.324Z,11.00
2022-10-12T07:17:56.980Z,11.10
2022-10-12T07:20:23.744Z,11.40
2022-10-12T07:22:52.113Z,11.50
2022-10-12T07:25:18.852Z,11.30
2022-10-12T07:27:48.629Z,11.40
2022-10-12T07:30:15.396Z,11.60
2022-10-12T07:32:42.663Z,11.60
2022-10-12T07:35:09.413Z,11.60
2022-10-12T07:37:36.102Z,11.80
2022-10-12T07:40:03.303Z,11.80
2022-10-12T07:42:29.990Z,11.80
2022-10-12T07:44:56.689Z,11.80
2022-10-12T07:47:23.457Z,11.80
2022-10-12T07:49:50.204Z,12.00
2022-10-12T07:52:16.841Z,12.10
2022-10-12T07:54:43.501Z,12.20
2022-10-12T07:57:10.194Z,12.30
2022-10-12T07:59:36.866Z,12.20
2022-10-12T08:02:03.653Z,12.40
2022-10-12T08:04:30.527Z,12.10
2022-10-12T08:06:59.463Z,12.10
2022-10-12T08:09:26.209Z,12.30
2022-10-12T08:11:53.100Z,12.60
2022-10-12T08:14:20.064Z,12.80
2022-10-12T08:16:46.745Z,12.70
2022-10-12T08:19:13.686Z,12.60
2022-10-12T08:21:41.972Z,12.70
2022-10-12T08:24:10.250Z,12.80
2022-10-12T08:26:36.960Z,12.90
2022-10-12T08:29:05.085Z,12.90
2022-10-12T08:31:31.755Z,12.90
2022-10-12T08:33:58.881Z,13.00
2022-10-12T08:36:25.820Z,13.30
2022-10-12T08:38:54.915Z,13.40
2022-10-12T08:41:26.793Z,13.50
2022-10-12T08:44:05.671Z,13.50
2022-10-12T08:46:32.816Z,13.40
2022-10-12T08:49:12.461Z,13.70
2022-10-12T08:52:01.576Z,13.90
2022-10-12T08:54:45.437Z,13.90
2022-10-12T08:57:21.230Z,13.90
2022-10-12T08:59:48.093Z,14.00
2022-10-12T09:02:41.286Z,14.20
2022-10-12T09:05:11.955Z,14.40
2022-10-12T09:08:03.917Z,14.60
2022-10-12T09:10:46.042Z,14.90
2022-10-12T09:13:41.957Z,15.10
2022-10-12T09:16:27.157Z,15.10
2022-10-12T09:18:57.999Z,15.40
2022-10-12T09:21:28.309Z,15.60
2022-10-12T09:23:56.941Z,15.60
2022-10-12T09:26:36.832Z,15.50
2022-10-12T09:29:24.792Z,15.50
2022-10-12T09:31:57.361Z,15.40
2022-10-12T09:34:24.666Z,15.70
2022-10-12T09:36:51.573Z,16.00
2022-10-12T09:39:20.348Z,16.50
2022-10-12T09:41:48.908Z,17.00
2022-10-12T09:44:19.151Z,17.10
2022-10-12T09:46:54.570Z,17.10
2022-10-12T09:49:22.034Z,17.40
2022-10-12T09:51:58.495Z,18.00
2022-10-12T09:54:27.178Z,18.60
2022-10-12T09:56:55.199Z,19.60
2022-10-12T09:59:38.068Z,20.90
2022-10-12T10:02:04.853Z,22.10
2022-10-12T10:04:31.759Z,23.40
2022-10-12T10:07:13.047Z,24.10
2022-10-12T10:09:39.769Z,24.90
2022-10-12T10:12:25.854Z,24.70
2022-10-12T10:14:56.664Z,24.10
2022-10-12T10:17:27.045Z,23.90
2022-10-12T10:19:55.909Z,23.70
2022-10-12T10:22:24.167Z,23.50
2022-10-12T10:25:00.501Z,22.90
2022-10-12T10:27:34.139Z,22.70
2022-10-12T10:30:33.583Z,22.50
2022-10-12T10:33:17.483Z,21.40
2022-10-12T10:36:04.953Z,20.50
2022-10-12T10:38:45.514Z,19.60
2022-10-12T10:41:18.047Z,19.50
2022-10-12T10:43:48.531Z,19.50
2022-10-12T10:46:23.881Z,19.50
2022-10-12T10:48:55.890Z,19.50
2022-10-12T10:51:22.988Z,19.60
2022-10-12T10:53:51.147Z,19.90
2022-10-12T10:56:23.725Z,19.70
2022-10-12T10:58:57.504Z,19.30
2022-10-12T11:01:37.640Z,19.10
2022-10-12T11:04:13.317Z,18.80
2022-10-12T11:06:46.993Z,18.20
2022-10-12T11:09:19.674Z,17.70
2022-10-12T11:11:53.860Z,17.80
2022-10-12T11:14:25.570Z,17.80
2022-10-12T11:17:31.146Z,18.00
2022-10-12T11:20:35.593Z,17.70
2022-10-12T11:23:15.081Z,17.70
2022-10-12T11:25:50.034Z,17.60
2022-10-12T11:28:17.026Z,17.60
2022-10-12T11:30:50.505Z,17.60
2022-10-12T11:33:25.440Z,17.90
2022-10-12T11:35:54.331Z,17.80
2022-10-12T11:38:29.062Z,17.90
2022-10-12T11:41:19.062Z,17.80
2022-10-12T11:43:56.119Z,17.70
2022-10-12T11:46:45.026Z,17.90
2022-10-12T11:49:26.366Z,18.10
2022-10-12T11:51:57.497Z,18.30
2022-10-12T11:54:32.253Z,18.30
2022-10-12T11:57:04.040Z,18.30
2022-10-12T11:59:49.776Z,18.30
2022-10-12T12:02:27.925Z,18.10
2022-10-12T12:04:55.680Z,18.30
2022-10-12T12:07:56.828Z,18.30
2022-10-12T12:10:26.468Z,18.40
2022-10-12T12:13:12.981Z,18.40
2022-10-12T12:15:41.704Z,18.30
2022-10-12T12:18:23.884Z,18.60
2022-10-12T12:21:05.172Z,18.90
2022-10-12T12:23:50.289Z,19.10
2022-10-12T12:26:18.964Z,19.20
2022-10-12T12:29:12.548Z,19.30
2022-10-12T12:31:39.445Z,19.80
2022-10-12T12:34:15.499Z,19.90
2022-10-12T12:36:45.308Z,19.80
2022-10-12T12:39:32.136Z,19.90
2022-10-12T12:42:08.396Z,20.10
2022-10-12T12:44:36.987Z,20.30
2022-10-12T12:47:08.518Z,20.40
2022-10-12T12:49:49.714Z,20.10
2022-10-12T12:52:34.281Z,19.90
2022-10-12T12:55:16.335Z,19.30
2022-10-12T12:58:10.621Z,19.20
2022-10-12T13:01:09.433Z,19.20
2022-10-12T13:03:58.012Z,19.40
2022-10-12T13:06:56.080Z,19.80
2022-10-12T13:09:38.694Z,20.00
2022-10-12T13:12:24.333Z,20.00
2022-10-12T13:15:13.098Z,20.00
2022-10-12T13:17:48.437Z,20.40
2022-10-12T13:20:26.709Z,21.10
2022-10-12T13:22:57.770Z,21.60
2022-10-12T13:25:36.077Z,21.80
2022-10-12T13:28:07.261Z,21.60
2022-10-12T13:30:41.244Z,21.70
2022-10-12T13:33:11.277Z,21.70
2022-10-12T13:35:56.215Z,22.00
2022-10-12T13:38:25.969Z,22.00
2022-10-12T13:41:16.159Z,21.60
2022-10-12T13:43:45.836Z,21.50
2022-10-12T13:46:34.085Z,21.80
2022-10-12T13:49:02.276Z,22.00
2022-10-12T13:51:30.814Z,22.00
2022-10-12T13:53:58.074Z,21.90
2022-10-12T13:56:28.005Z,22.10
2022-10-12T13:59:03.165Z,22.10
2022-10-12T14:01:33.401Z,21.60
2022-10-12T14:04:05.366Z,21.50
2022-10-12T14:06:34.711Z,21.30
2022-10-12T14:09:12.654Z,21.00
2022-10-12T14:11:40.898Z,20.70
2022-10-12T14:14:35.544Z,20.60
2022-10-12T14:17:03.284Z,20.20
2022-10-12T14:19:47.793Z,19.90
2022-10-12T14:22:31.163Z,19.40
2022-10-12T14:25:21.406Z,19.10
2022-10-12T14:27:57.872Z,19.40
2022-10-12T14:30:36.606Z,19.60
2022-10-12T14:33:20.539Z,19.70
2022-10-12T14:35:49.128Z,19.60
2022-10-12T14:38:41.494Z,19.20
2022-10-12T14:41:42.227Z,19.40
2022-10-12T14:44:20.161Z,19.60
2022-10-12T14:47:05.713Z,19.60
2022-10-12T14:49:41.015Z,19.70
2022-10-12T14:52:30.947Z,19.70
2022-10-12T14:54:59.090Z,19.70
2022-10-12T14:57:29.021Z,19.50
2022-10-12T14:59:56.372Z,19.60
2022-10-12T15:02:30.004Z,19.60
2022-10-12T15:04:57.438Z,19.50
2022-10-12T15:07:31.223Z,19.40
2022-10-12T15:09:58.607Z,19.20
2022-10-12T15:12:26.495Z,19.10
2022-10-12T15:14:56.027Z,19.00
2022-10-12T15:17:22.917Z,19.20
2022-10-12T15:19:51.034Z,19.00
2022-10-12T15:22:20.018Z,18.90
2022-10-12T15:24:47.520Z,18.80
2022-10-12T15:27:14.822Z,18.80
2022-10-12T15:29:42.117Z,18.70
2022-10-12T15:32:11.816Z,18.60
2022-10-12T15:34:39.276Z,18.40
2022-10-12T15:37:09.061Z,18.50
2022-10-12T15:39:36.279Z,18.60
2022-10-12T15:42:03.221Z,18.20
2022-10-12T15:44:29.935Z,17.90
2022-10-12T15:46:56.844Z,17.80
2022-10-12T15:49:26.263Z,17.70
2022-10-12T15:51:54.716Z,17.70
2022-10-12T15:54:21.652Z,17.80
2022-10-12T15:56:48.382Z,17.80
2022-10-12T15:59:15.082Z,18.00
2022-10-12T16:01:43.155Z,18.10
2022-10-12T16:04:14.555Z,18.20
2022-10-12T16:06:41.367Z,18.00
2022-10-12T16:09:08.446Z,17.70
2022-10-12T16:11:35.465Z,17.60
2022-10-12T16:14:03.097Z,17.70
2022-10-12T16:16:31.832Z,17.70
2022-10-12T16:18:58.855Z,17.50
2022-10-12T16:21:25.752Z,17.50
2022-10-12T16:23:52.625Z,17.30
2022-10-12T16:26:19.574Z,17.20
2022-10-12T16:28:46.616Z,17.30
2022-10-12T16:31:15.867Z,17.30
2022-10-12T16:33:42.870Z,17.30
2022-10-12T16:36:15.872Z,17.20
2022-10-12T16:38:44.466Z,17.10
2022-10-12T16:41:14.446Z,17.00
2022-10-12T16:43:42.142Z,16.80
2022-10-12T16:46:10.726Z,16.70
2022-10-12T16:48:37.798Z,16.50
2022-10-12T16:51:14.502Z,16.40
2022-10-12T16:53:43.944Z,16.70
2022-10-12T16:56:10.824Z,16.70
2022-10-12T16:58:38.318Z,16.50
2022-10-12T17:01:12.793Z,16.30
2022-10-12T17:03:40.137Z,16.20
2022-10-12T17:06:16.593Z,16.40
2022-10-12T17:08:43.262Z,16.40
2022-10-12T17:11:13.455Z,16.40
2022-10-12T17:13:46.613Z,16.00
2022-10-12T17:16:34.516Z,15.70
2022-10-12T17:19:01.472Z,15.70
2022-10-12T17:21:28.601Z,15.70
2022-10-12T17:24:00.262Z,15.70
2022-10-12T17:26:27.222Z,15.60
2022-10-12T17:28:54.110Z,15.60
2022-10-12T17:31:21.166Z,15.70
2022-10-12T17:33:50.866Z,15.50
2022-10-12T17:36:17.686Z,15.30
2022-10-12T17:38:49.171Z,15.10
2022-10-12T17:41:16.594Z,15.00
2022-10-12T17:43:43.817Z,14.80
2022-10-12T17:46:11.021Z,14.80
2022-10-12T17:48:38.217Z,14.90
2022-10-12T17:51:09.997Z,14.80
2022-10-12T17:53:36.974Z,14.70
2022-10-12T17:56:05.165Z,14.80
2022-10-12T17:58:35.799Z,14.80
2022-10-12T18:01:15.807Z,14.50
2022-10-12T18:03:45.910Z,14.20
2022-10-12T18:06:16.007Z,14.20
2022-10-12T18:08:43.929Z,14.20
2022-10-12T18:11:10.742Z,14.30
2022-10-12T18:13:37.782Z,14.40
2022-10-12T18:16:10.734Z,14.30
2022-10-12T18:18:38.792Z,14.40
2022-10-12T18:21:11.368Z,14.40
2022-10-12T18:23:38.085Z,14.40
2022-10-12T18:26:07.505Z,14.20
2022-10-12T18:28:35.365Z,14.20
2022-10-12T18:31:04.049Z,14.00
2022-10-12T18:33:31.173Z,14.00
2022-10-12T18:36:07.362Z,14.00
2022-10-12T18:38:34.487Z,14.00
2022-10-12T18:41:06.323Z,13.90
2022-10-12T18:43:33.646Z,13.80
2022-10-12T18:46:04.137Z,13.90
2022-10-12T18:48:31.184Z,13.80
2022-10-12T18:51:04.648Z,13.60
2022-10-12T18:53:32.160Z,13.50
2022-10-12T18:56:01.562Z,13.60
2022-10-12T18:58:28.639Z,13.60
2022-10-12T19:00:55.846Z,13.70
2022-10-12T19:03:22.782Z,13.80
2022-10-12T19:05:50.321Z,13.70
2022-10-12T19:08:20.175Z,13.60
2022-10-12T19:10:47.665Z,13.50
2022-10-12T19:13:20.747Z,13.40
2022-10-12T19:15:48.595Z,13.50
2022-10-12T19:18:15.975Z,13.20
2022-10-12T19:20:43.230Z,13.00
2022-10-12T19:23:17.862Z,13.00
2022-10-12T19:25:48.165Z,12.90
2022-10-12T19:28:14.901Z,13.00
2022-10-12T19:30:41.578Z,13.10
2022-10-12T19:33:08.217Z,13.10
2022-10-12T19:35:38.123Z,13.30
2022-10-12T19:38:07.704Z,13.20
2022-10-12T19:40:35.898Z,13.00
2022-10-12T19:43:09.010Z,13.00
2022-10-12T19:45:42.995Z,13.10
2022-10-12T19:48:10.033Z,13.00
2022-10-12T19:50:37.016Z,13.00
2022-10-12T19:53:04.161Z,13.00
2022-10-12T19:55:35.169Z,13.00
2022-10-12T19:58:07.360Z,12.80
2022-10-12T20:00:35.456Z,12.70
2022-10-12T20:03:02.550Z,12.70
2022-10-12T20:05:29.608Z,12.60
2022-10-12T20:07:56.249Z,12.60
2022-10-12T20:10:23.071Z,12.60
2022-10-12T20:12:49.803Z,12.60
2022-10-12T20:15:16.654Z,12.60
2022-10-12T20:17:45.301Z,12.60
2022-10-12T20:20:12.296Z,12.60
2022-10-12T20:22:39.098Z,12.50
2022-10-12T20:25:09.566Z,12.50
2022-10-12T20:27:36.784Z,12.50
2022-10-12T20:30:05.115Z,12.60
2022-10-12T20:32:33.994Z,12.50
2022-10-12T20:35:01.682Z,12.30
2022-10-12T20:37:29.265Z,12.30
2022-10-12T20:39:55.955Z,12.10
2022-10-12T20:42:22.713Z,11.90
2022-10-12T20:44:49.916Z,11.90
2022-10-12T20:47:17.640Z,11.90
2022-10-12T20:49:44.613Z,12.00
2022-10-12T20:52:11.511Z,12.20
2022-10-12T20:54:38.398Z,12.00
2022-10-12T20:57:05.533Z,11.70
2022-10-12T20:59:34.450Z,11.50
2022-10-12T21:02:01.174Z,11.40
2022-10-12T21:04:30.497Z,11.30
2022-10-12T21:06:58.420Z,11.30
2022-10-12T21:09:25.055Z,11.30
2022-10-12T21:11:51.746Z,11.30
2022-10-12T21:14:18.424Z,11.50
2022-10-12T21:16:45.256Z,11.40
2022-10-12T21:19:15.095Z,11.50
2022-10-12T21:21:42.075Z,11.70
2022-10-12T21:24:09.438Z,11.70
2022-10-12T21:26:36.407Z,11.60
2022-10-12T21:29:03.201Z,11.50
2022-10-12T21:31:32.531Z,11.50
2022-10-12T21:34:01.571Z,11.70
2022-10-12T21:36:29.445Z,11.80
2022-10-12T21:38:56.621Z,11.70
2022-10-12T21:41:25.985Z,11.70
2022-10-12T21:43:53.164Z,11.70
2022-10-12T21:46:25.696Z,11.80
2022-10-12T21:48:52.962Z,11.70
2022-10-12T21:51:20.964Z,11.60
2022-10-12T21:53:48.789Z,11.70
2022-10-12T21:56:24.319Z,11.50
2022-10-12T21:58:55.505Z,11.50
2022-10-12T22:01:24.879Z,11.40
2022-10-12T22:03:56.386Z,11.20
2022-10-12T22:06:25.052Z,11.20
2022-10-12T22:08:56.425Z,11.10
2022-10-12T22:11:24.553Z,11.20
2022-10-12T22:13:51.515Z,11.20
2022-10-12T22:16:19.106Z,11.30
2022-10-12T22:18:46.121Z,11.40
2022-10-12T22:21:15.867Z,11.40
2022-10-12T22:23:43.463Z,11.50
2022-10-12T22:26:16.278Z,11.60
2022-10-12T22:28:53.163Z,11.40
2022-10-12T22:31:21.035Z,11.20
2022-10-12T22:33:47.777Z,11.20
2022-10-12T22:36:15.445Z,11.10
2022-10-12T22:38:42.617Z,11.20
2022-10-12T22:41:17.207Z,11.20
2022-10-12T22:43:47.818Z,11.10
2022-10-12T22:46:14.657Z,11.10
2022-10-12T22:48:41.380Z,11.10
2022-10-12T22:51:11.848Z,11.00
2022-10-12T22:53:39.278Z,11.00
2022-10-12T22:56:08.732Z,11.10
2022-10-12T22:58:35.722Z,11.00
2022-10-12T23:01:05.005Z,11.00
2022-10-12T23:03:32.765Z,10.90
2022-10-12T23:06:03.640Z,10.90
2022-10-12T23:08:31.083Z,10.90
2022-10-12T23:11:06.684Z,10.90
2022-10-12T23:13:36.371Z,10.80
2022-10-12T23:16:05.426Z,10.60
2022-10-12T23:18:33.372Z,10.50
2022-10-12T23:21:03.100Z,10.50
2022-10-12T23:23:29.844Z,10.60
2022-10-12T23:26:08.300Z,10.80
2022-10-12T23:28:35.631Z,10.70
2022-10-12T23:31:04.782Z,10.50
2022-10-12T23:33:31.643Z,10.30
2022-10-12T23:36:00.277Z,10.40
2022-10-12T23:38:29.706Z,10.50
2022-10-12T23:40:57.008Z,10.60
2022-10-12T23:43:24.344Z,10.50
2022-10-12T23:45:53.833Z,10.70
2022-10-12T23:48:20.911Z,10.60
2022-10-12T23:50:47.992Z,10.70
2022-10-12T23:53:15.041Z,10.60
2022-10-12T23:55:41.746Z,10.50
2022-10-12T23:58:08.840Z,10.30
